Latest Coastal Weather Observations for Cape Moreton

IDQ60701

Issued at 4:11 pm EST Sunday 5 July 2015 (issued every 10 minutes, with the page automatically refreshed every 10 minutes)

About coastal observations | Map of coastal stations | Coastal observations for QLD | Marine services | Other Formats
Station Details ID: 040043 Name: CAPE MORETON LIGHTHOUSE Lat: -27.03 Lon: 153.47 Height: 99.9 m
Data from the previous 72 hours. | See also: Recent months at Cape Moreton
Date/Time
EST
Temp

°C
Wind Pressure Rain
since 9am
mm
Weather Cloud Vis
km
Sea
Height
m
Swell
Dir
 
Speed
knots
Gust
knots
hPa Trend Height
m
Period
s
Dir
05/04:00pm 20.0 N 5 7 1020.0 - 0.0 - - - - - - -
05/03:30pm 20.3 W 6 9 1020.0 - 0.0 - - - - - - -
05/03:00pm 20.2 W 6 8 1019.9 - 0.0 - - - - - - -
05/02:30pm 20.3 W 8 10 1019.9 - 0.0 - - - - - - -
05/02:00pm 19.8 W 9 12 1020.1 - 0.0 - - - - - - -
05/01:30pm 20.1 W 8 11 1020.2 - 0.0 - - - - - - -
05/01:00pm 20.0 W 9 11 1020.6 - 0.0 - - - - - - -
05/12:30pm 20.2 W 8 11 1021.0 - 0.0 - - - - - - -
05/12:00pm 19.4 W 7 9 1021.6 - 0.0 - - - - - - -
05/11:30am 19.4 W 7 8 1022.1 - 0.0 - - - - - - -
05/11:00am 19.7 WSW 7 10 1022.5 - 0.0 - - - - - - -
05/10:30am 18.8 W 5 8 1022.8 - 0.0 - - - - - - -
05/10:00am 18.2 WSW 5 6 1022.9 - 0.0 - - - - - - -
05/09:30am 17.1 WSW 5 6 1022.8 - 0.0 - - - - - - -
05/09:00am 16.4 WSW 6 7 1022.7 - 0.0 - - - - - - -
05/08:30am 15.5 SW 8 10 1022.4 - 0.0 - - - - - - -
05/08:00am 16.1 SW 5 6 1022.1 - 0.0 - - - - - - -
05/07:30am 15.8 SSW 6 7 1021.8 - 0.0 - - - - - - -
05/07:00am 16.4 SSE 3 4 1021.6 - 0.0 - - - - - - -
05/06:30am 17.0 N 5 7 1021.3 - 0.0 - - - - - - -
05/06:00am 17.4 NNE 4 7 1021.0 - 0.0 - - - - - - -
05/05:30am 17.4 NE 6 9 1020.8 - 0.0 - - - - - - -
05/05:00am 17.9 NNE 6 11 1020.6 - 0.0 - - - - - - -
05/04:30am 17.9 NNE 5 6 1020.5 - 0.0 - - - - - - -
05/04:00am 17.6 NE 4 6 1020.5 - 0.0 - - - - - - -
05/03:30am 17.3 NNE 7 8 1020.6 - 0.0 - - - - - - -
05/03:00am 16.8 NNE 8 11 1020.8 - 0.0 - - - - - - -
05/02:30am 17.0 NNE 10 13 1021.1 - 0.0 - - - - - - -
05/02:00am 17.3 NNE 9 11 1021.5 - 0.0 - - - - - - -
05/01:30am 17.2 ENE 5 8 1021.8 - 0.0 - - - - - - -
05/01:00am 17.2 WNW 7 7 1021.9 - 0.0 - - - - - - -
05/12:30am 16.6 W 8 9 1021.9 - 0.0 - - - - - - -
05/12:00am 15.9 WSW 10 11 1021.9 - 0.0 - - - - - - -
 
Date/Time
EST
Temp

°C
Wind Pressure Rain
since 9am
mm
Weather Cloud Vis
km
Sea
Height
m
Swell
Dir
 
Speed
knots
Gust
knots
hPa Trend Height
m
Period
s
Dir
04/11:30pm 15.5 WSW 11 11 1022.0 - 0.0 - - - - - - -
04/11:00pm 15.7 WSW 10 11 1022.1 - 0.0 - - - - - - -
04/10:30pm 15.8 WSW 10 11 1022.2 - 0.0 - - - - - - -
04/10:00pm 15.9 WSW 10 11 1022.1 - 0.0 - - - - - - -
04/09:30pm 15.9 WSW 10 11 1022.0 - 0.0 - - - - - - -
04/09:00pm 15.8 WSW 9 9 1022.2 - 0.0 - - - - - - -
04/08:30pm 16.5 SW 8 9 1022.1 - 0.0 - - - - - - -
04/08:00pm 16.0 SW 8 9 1022.0 - 0.0 - - - - - - -
04/07:30pm 15.8 SW 9 10 1021.7 - 0.0 - - - - - - -
04/07:00pm 15.6 SW 9 10 1021.3 - 0.0 - - - - - - -
04/06:30pm 15.6 SW 8 9 1021.0 - 0.0 - - - - - - -
04/06:00pm 15.6 SW 8 10 1020.6 - 0.0 - - - - - - -
04/05:30pm 15.9 SSW 7 9 1020.4 - 0.0 - - - - - - -
04/05:00pm 16.4 SSW 7 9 1020.3 - 0.0 - - - - - - -
04/04:30pm 17.3 SSW 8 10 1020.3 - 0.0 - - - - - - -
04/04:00pm 17.5 SSE 9 12 1020.3 - 0.0 - - - - - - -
04/03:30pm 17.6 SSE 8 11 1020.5 - 0.0 - - - - - - -
04/03:00pm 17.8 SSE 7 10 1020.6 - 0.0 - - - - - - -
04/02:30pm 18.2 SSE 7 10 1020.7 - 0.0 - - - - - - -
04/02:00pm 18.4 SSE 9 12 1020.7 - 0.0 - - - - - - -
04/01:30pm 18.4 S 8 12 1020.9 - 0.0 - - - - - - -
04/01:00pm 16.4 SSW 11 14 1021.2 - 0.0 - - - - - - -
04/12:30pm 16.0 S 9 12 1021.6 - 0.0 - - - - - - -
04/12:00pm 16.5 SSE 11 16 1022.2 - 0.0 - - - - - - -
04/11:30am 17.7 S 12 16 1022.5 - 0.0 - - - - - - -
04/11:00am 17.3 SW 9 13 1022.9 - 0.0 - - - - - - -
04/10:30am 15.2 SW 11 13 1023.1 - 0.0 - - - - - - -
04/10:00am 14.5 SSW 13 17 1023.3 - 0.0 - - - - - - -
04/09:30am 14.6 SSW 13 18 1023.4 - 0.0 - - - - - - -
04/09:00am 15.1 SW 10 15 1023.3 - 1.2 - - - - - - -
04/08:30am 14.3 SSW 8 12 1023.2 - 1.2 - - - - - - -
04/08:00am 14.0 SW 11 14 1022.8 - 1.2 - - - - - - -
04/07:30am 13.2 SW 13 16 1022.5 - 1.2 - - - - - - -
04/07:00am 13.3 SSW 13 16 1022.3 - 1.2 - - - - - - -
04/06:30am 14.0 SSW 14 17 1022.2 - 1.2 - - - - - - -
04/06:00am 13.8 SSW 14 18 1021.9 - 1.0 - - - - - - -
04/05:30am 13.7 SSW 13 17 1021.9 - 1.0 - - - - - - -
04/05:00am 13.7 SSW 14 19 1021.4 - 1.0 - - - - - - -
04/04:30am 13.4 SSW 15 20 1021.3 - 1.0 - - - - - - -
04/04:00am 13.1 SSW 17 23 1021.1 - 1.0 - - - - - - -
04/03:30am 13.1 SSW 14 20 1021.4 - 1.0 - - - - - - -
04/03:00am 13.3 SSW 13 17 1021.5 - 0.8 Rain - - - - - -
04/02:30am 14.1 SSW 15 19 1021.2 - 0.2 - - - - - - -
04/02:00am 14.3 SSW 16 21 1021.3 - 0.2 - - - - - - -
04/01:30am 14.0 SSW 14 18 1021.5 - 0.2 - - - - - - -
04/01:00am 14.0 SSW 15 20 1021.7 - 0.2 - - - - - - -
04/12:30am 13.9 SW 12 16 1021.8 - 0.0 - - - - - - -
04/12:00am 13.2 SSW 10 12 1022.3 - 0.0 - - - - - - -
 
Date/Time
EST
Temp

°C
Wind Pressure Rain
since 9am
mm
Weather Cloud Vis
km
Sea
Height
m
Swell
Dir
 
Speed
knots
Gust
knots
hPa Trend Height
m
Period
s
Dir
03/11:30pm 13.6 S 13 17 1022.4 - 0.0 - - - - - - -
03/11:00pm 14.7 SSW 14 18 1022.8 - 0.0 - - - - - - -
03/10:30pm 15.3 SSE 18 23 1022.8 - 0.0 - - - - - - -
03/10:15pm 15.9 S 17 26 1022.8 - 0.0 - - - - - - -
03/10:00pm 15.7 SSE 16 23 1022.9 - 0.0 - - - - - - -
03/09:30pm 15.2 SSW 14 19 1022.8 - 0.0 - - - - - - -
03/09:00pm 15.1 SSW 14 19 1022.6 - 0.0 - - - - - - -
03/08:30pm 15.3 SSW 17 24 1022.3 - 0.0 - - - - - - -
03/08:00pm 15.3 SSW 16 22 1022.2 - 0.0 - - - - - - -
03/07:30pm 15.4 SSW 17 22 1022.0 - 0.0 - - - - - - -
03/07:00pm 15.9 SSW 15 24 1021.8 - 0.0 - - - - - - -
03/06:53pm 16.4 S 19 25 1021.6 - 0.0 - - - - - - -
03/06:30pm 17.0 SSE 22 29 1021.1 - 0.0 - - - - - - -
03/06:07pm 17.0 SSE 22 32 1020.8 - 0.0 - - - - - - -
03/06:00pm 17.0 SSE 24 32 1020.6 - 0.0 - - - - - - -
03/05:33pm 17.1 SSE 24 35 1020.3 - 0.0 - - - - - - -
03/05:30pm 16.9 SSE 23 32 1020.3 - 0.0 - - - - - - -
03/05:18pm 17.0 SSE 23 34 1020.3 - 0.0 - - - - - - -
03/05:00pm 16.8 SSE 19 28 1020.7 - 0.0 - - - - - - -
03/04:30pm 16.7 SSE 20 27 1020.7 - 0.0 - - - - - - -
03/04:00pm 16.8 SSE 19 26 1020.5 - 0.0 - - - - - - -
03/03:30pm 16.9 SSE 21 28 1020.1 - 0.0 - - - - - - -
03/03:00pm 16.6 SSE 21 31 1020.3 - 0.0 - - - - - - -
03/02:57pm 16.6 SSE 21 31 1020.1 - 0.0 - - - - - - -
03/02:30pm 16.8 SSE 21 27 1020.0 - 0.0 - - - - - - -
03/02:00pm 16.8 SSE 23 30 1019.9 - 0.0 - - - - - - -
03/01:36pm 17.3 SSE 21 31 1020.0 - 0.0 - - - - - - -
03/01:30pm 17.1 SSE 22 31 1019.9 - 0.0 - - - - - - -
03/01:13pm 17.3 SSE 19 29 1020.0 - 0.0 - - - - - - -
03/01:00pm 16.8 S 19 26 1020.1 - 0.0 - - - - - - -
03/12:30pm 16.7 S 19 25 1020.5 - 0.0 - - - - - - -
03/12:00pm 16.8 S 14 20 1020.9 - 0.0 - - - - - - -
03/11:30am 16.2 S 14 20 1021.4 - 0.0 - - - - - - -
03/11:00am 15.5 S 15 21 1021.5 - 0.0 - - - - - - -
03/10:30am 15.1 SSW 15 20 1021.8 - 0.0 - - - - - - -
03/10:00am 14.7 SSW 17 23 1021.9 - 0.0 - - - - - - -
03/09:30am 14.3 SSW 16 23 1021.9 - 0.0 - - - - - - -
03/09:00am 14.0 SSW 14 20 1021.8 - 0.0 - - - - - - -
03/08:30am 13.2 SSW 16 23 1021.3 - 0.0 - - - - - - -
03/08:00am 12.4 SSW 18 23 1021.1 - 0.0 - - - - - - -
03/07:30am 12.0 SSW 18 26 1020.7 - 0.0 - - - - - - -
03/07:00am 11.3 SSW 16 21 1020.7 - 0.0 - - - - - - -
03/06:30am 11.1 SSW 15 22 1020.3 - 0.0 - - - - - - -
03/06:00am 11.0 SSW 15 21 1020.1 - 0.0 - - - - - - -
03/05:30am 11.0 SSW 15 19 1019.6 - 0.0 - - - - - - -
03/05:00am 10.7 SW 15 20 1019.2 - 0.0 - - - - - - -
03/04:30am 10.8 SW 15 19 1018.9 - 0.0 - - - - - - -
03/04:00am 10.7 SW 16 21 1018.7 - 0.0 - - - - - - -
03/03:30am 10.6 SW 15 21 1018.8 - 0.0 - - - - - - -
03/03:00am 10.7 SW 17 22 1018.8 - 0.0 - - - - - - -
03/02:30am 10.6 SW 16 24 1018.7 - 0.0 - - - - - - -
03/02:00am 11.1 SW 17 23 1018.7 - 0.0 - - - - - - -
03/01:30am 11.1 SW 16 22 1018.7 - 0.0 - - - - - - -
03/01:00am 11.3 SW 15 22 1019.0 - 0.0 - - - - - - -
03/12:30am 11.7 SW 18 23 1018.7 - 0.0 - - - - - - -
03/12:00am 12.2 SW 19 30 1018.6 - 0.0 - - - - - - -
 
Date/Time
EST
Temp

°C
Wind Pressure Rain
since 9am
mm
Weather Cloud Vis
km
Sea
Height
m
Swell
Dir
 
Speed
knots
Gust
knots
hPa Trend Height
m
Period
s
Dir
02/11:57pm 12.3 SW 19 29 1018.5 - 0.0 - - - - - - -
02/11:30pm 12.3 SW 16 24 1018.8 - 0.0 - - - - - - -
02/11:00pm 12.6 SW 17 24 1018.9 - 0.0 - - - - - - -
02/10:30pm 13.0 SW 18 26 1018.9 - 0.0 - - - - - - -
02/10:00pm 13.1 SW 14 20 1018.7 - 0.0 - - - - - - -
02/09:30pm 13.1 SW 10 15 1019.0 - 0.0 - - - - - - -
02/09:00pm 13.7 SW 13 21 1018.8 - 0.0 - - - - - - -
02/08:30pm 14.1 WSW 15 20 1018.5 - 0.0 - - - - - - -
02/08:00pm 14.2 WSW 16 22 1018.5 - 0.0 - - - - - - -
02/07:30pm 14.3 WSW 12 17 1018.5 - 0.0 - - - - - - -
02/07:00pm 14.2 WSW 14 17 1018.4 - 0.0 - - - - - - -
02/06:30pm 14.8 WSW 14 19 1018.6 - 0.0 - - - - - - -
02/06:00pm 15.1 WSW 14 17 1018.2 - 0.0 - - - - - - -
02/05:30pm 15.0 WSW 11 16 1018.0 - 0.0 - - - - - - -
02/05:00pm 15.5 WSW 12 16 1018.1 - 0.0 - - - - - - -
02/04:30pm 16.0 WSW 11 15 1017.9 - 0.0 - - - - - - -

Other Formats:

Comma delimited format used in spreadsheet applications
http://www.bom.gov.au/fwo/IDQ60701/IDQ60701.94594.axf

JavaScript Object Notation format (JSON) in row-major order
http://www.bom.gov.au/fwo/IDQ60701/IDQ60701.94594.json